createdAt,value
2022-10-11T00:01:35.700Z,8.93
2022-10-11T00:04:04.036Z,14.15
2022-10-11T00:06:32.430Z,8.65
2022-10-11T00:09:00.566Z,12.68
2022-10-11T00:11:29.966Z,16.75
2022-10-11T00:14:00.598Z,10.07
2022-10-11T00:16:28.607Z,12.88
2022-10-11T00:18:57.186Z,12.32
2022-10-11T00:21:25.213Z,9.75
2022-10-11T00:23:55.028Z,16.05
2022-10-11T00:26:23.188Z,10.18
2022-10-11T00:28:55.564Z,16.25
2022-10-11T00:34:01.486Z,14.05
2022-10-11T00:36:29.826Z,14.20
2022-10-11T00:38:57.861Z,18.85
2022-10-11T00:41:26.176Z,12.65
2022-10-11T00:44:10.372Z,20.20
2022-10-11T00:46:44.099Z,18.40
2022-10-11T00:49:17.705Z,9.95
2022-10-11T00:51:50.414Z,15.95
2022-10-11T00:54:20.310Z,17.10
2022-10-11T00:56:53.270Z,11.32
2022-10-11T00:59:25.801Z,15.93
2022-10-11T01:01:58.507Z,14.00
2022-10-11T01:04:28.268Z,12.98
2022-10-11T01:07:01.372Z,22.65
2022-10-11T01:09:29.702Z,15.38
2022-10-11T01:12:04.712Z,13.30
2022-10-11T01:14:47.772Z,17.13
2022-10-11T01:17:23.823Z,13.93
2022-10-11T01:20:18.073Z,18.33
2022-10-11T01:23:19.837Z,11.93
2022-10-11T01:26:00.645Z,20.50
2022-10-11T01:28:46.175Z,13.73
2022-10-11T01:31:22.039Z,13.02
2022-10-11T01:33:53.219Z,23.65
2022-10-11T01:36:27.921Z,12.30
2022-10-11T01:39:00.134Z,15.27
2022-10-11T01:41:34.327Z,17.38
2022-10-11T01:44:05.840Z,24.08
2022-10-11T01:46:37.640Z,9.68
2022-10-11T01:49:07.178Z,21.53
2022-10-11T01:51:37.697Z,11.63
2022-10-11T01:54:13.634Z,10.35
2022-10-11T01:57:19.172Z,11.65
2022-10-11T01:59:57.302Z,16.77
2022-10-11T02:02:35.282Z,12.48
2022-10-11T02:05:08.348Z,22.50
2022-10-11T02:07:43.079Z,11.70
2022-10-11T02:10:17.710Z,24.98
2022-10-11T02:12:49.491Z,19.77
2022-10-11T02:15:18.643Z,25.25
2022-10-11T02:17:51.024Z,23.00
2022-10-11T02:22:51.673Z,12.43
2022-10-11T02:25:24.147Z,25.67
2022-10-11T02:27:53.245Z,18.92
2022-10-11T02:30:21.571Z,25.75
2022-10-11T02:32:52.713Z,20.63
2022-10-11T02:35:22.087Z,17.25
2022-10-11T02:37:54.539Z,21.00
2022-10-11T02:40:27.877Z,20.02
2022-10-11T02:42:59.449Z,22.02
2022-10-11T02:45:31.779Z,17.48
2022-10-11T02:48:02.808Z,19.77
2022-10-11T02:50:31.031Z,23.40
2022-10-11T02:52:59.167Z,14.65
2022-10-11T02:55:27.319Z,17.02
2022-10-11T02:57:58.665Z,26.45
2022-10-11T03:00:27.643Z,25.52
2022-10-11T03:02:56.155Z,15.05
2022-10-11T03:05:25.980Z,21.58
2022-10-11T03:07:54.570Z,32.50
2022-10-11T03:10:22.594Z,25.13
2022-10-11T03:12:50.665Z,22.08
2022-10-11T03:15:18.829Z,19.83
2022-10-11T03:17:47.352Z,21.70
2022-10-11T03:20:15.993Z,21.67
2022-10-11T03:22:45.525Z,25.38
2022-10-11T03:25:14.579Z,28.35
2022-10-11T03:27:44.974Z,27.88
2022-10-11T03:30:18.016Z,27.55
2022-10-11T03:32:46.910Z,23.23
2022-10-11T03:35:15.463Z,21.40
2022-10-11T03:37:45.818Z,29.90
2022-10-11T03:40:14.732Z,21.80
2022-10-11T03:42:43.744Z,20.27
2022-10-11T03:45:12.020Z,28.10
2022-10-11T03:47:40.487Z,25.30
2022-10-11T03:50:10.398Z,22.50
2022-10-11T03:52:38.666Z,25.27
2022-10-11T03:55:11.061Z,32.45
2022-10-11T04:00:10.848Z,28.33
2022-10-11T04:02:39.429Z,30.02
2022-10-11T04:05:10.041Z,31.25
2022-10-11T04:07:38.229Z,36.28
2022-10-11T04:10:09.170Z,19.10
2022-10-11T04:12:38.305Z,33.83
2022-10-11T04:15:07.835Z,24.23
2022-10-11T04:17:36.096Z,30.90
2022-10-11T04:20:04.574Z,34.80
2022-10-11T04:22:33.467Z,33.40
2022-10-11T04:25:01.747Z,35.10
2022-10-11T04:27:33.598Z,39.45
2022-10-11T04:30:02.177Z,38.08
2022-10-11T04:32:30.600Z,34.75
2022-10-11T04:35:04.050Z,28.05
2022-10-11T04:37:33.242Z,35.35
2022-10-11T04:40:01.768Z,34.55
2022-10-11T04:42:31.912Z,38.88
2022-10-11T04:45:00.399Z,23.83
2022-10-11T04:47:28.624Z,27.50
2022-10-11T04:49:56.833Z,49.20
2022-10-11T04:52:26.844Z,29.65
2022-10-11T04:54:56.010Z,25.27
2022-10-11T04:57:24.034Z,36.60
2022-10-11T04:59:53.539Z,26.48
2022-10-11T05:02:21.782Z,25.20
2022-10-11T05:04:49.946Z,35.85
2022-10-11T05:07:18.151Z,35.70
2022-10-11T05:09:46.265Z,37.67
2022-10-11T05:12:14.532Z,26.92
2022-10-11T05:14:42.729Z,38.35
2022-10-11T05:17:12.132Z,30.65
2022-10-11T05:19:40.272Z,46.72
2022-10-11T05:22:08.588Z,30.63
2022-10-11T05:24:38.567Z,40.60
2022-10-11T05:27:08.428Z,38.78
2022-10-11T05:29:37.745Z,30.40
2022-10-11T05:32:06.479Z,36.40
2022-10-11T05:34:35.849Z,31.88
2022-10-11T05:37:04.200Z,37.38
2022-10-11T05:39:32.388Z,31.98
2022-10-11T05:42:00.575Z,28.95
2022-10-11T05:44:28.745Z,29.88
2022-10-11T05:46:56.847Z,22.83
2022-10-11T05:49:24.952Z,33.05
2022-10-11T05:51:54.399Z,23.05
2022-10-11T05:54:23.092Z,25.38
2022-10-11T05:56:53.482Z,26.67
2022-10-11T05:59:24.051Z,23.58
2022-10-11T06:01:55.427Z,29.35
2022-10-11T06:04:24.783Z,22.45
2022-10-11T06:06:54.165Z,26.77
2022-10-11T06:09:22.515Z,35.15
2022-10-11T06:11:51.063Z,25.92
2022-10-11T06:14:20.421Z,20.08
2022-10-11T06:16:48.864Z,17.10
2022-10-11T06:19:16.978Z,17.38
2022-10-11T06:21:46.006Z,21.40
2022-10-11T06:24:16.265Z,15.25
2022-10-11T06:26:44.406Z,24.63
2022-10-11T06:29:12.454Z,24.08
2022-10-11T06:31:41.025Z,25.00
2022-10-11T06:34:09.427Z,21.33
2022-10-11T06:36:37.744Z,18.17
2022-10-11T06:39:06.232Z,11.77
2022-10-11T06:41:35.830Z,17.05
2022-10-11T06:44:04.173Z,17.50
2022-10-11T06:46:33.221Z,16.67
2022-10-11T06:49:01.283Z,14.88
2022-10-11T06:51:31.616Z,12.13
2022-10-11T06:54:01.781Z,17.25
2022-10-11T06:56:31.370Z,12.98
2022-10-11T06:59:01.803Z,14.35
2022-10-11T07:01:31.400Z,15.00
2022-10-11T07:04:01.714Z,15.93
2022-10-11T07:06:30.744Z,18.50
2022-10-11T07:09:00.950Z,12.73
2022-10-11T07:11:30.111Z,17.80
2022-10-11T07:14:01.381Z,11.63
2022-10-11T07:16:29.911Z,14.88
2022-10-11T07:19:00.911Z,17.80
2022-10-11T07:21:30.391Z,17.60
2022-10-11T07:23:58.671Z,11.63
2022-10-11T07:26:26.965Z,12.23
2022-10-11T07:28:56.382Z,17.00
2022-10-11T07:31:27.078Z,13.02
2022-10-11T07:33:55.076Z,13.57
2022-10-11T07:36:24.766Z,12.63
2022-10-11T07:38:53.375Z,19.17
2022-10-11T07:41:57.384Z,14.57
2022-10-11T07:44:40.216Z,15.55
2022-10-11T07:47:18.504Z,18.13
2022-10-11T07:49:49.263Z,16.92
2022-10-11T07:52:27.407Z,12.05
2022-10-11T07:54:57.931Z,12.88
2022-10-11T07:57:27.640Z,18.08
2022-10-11T07:59:59.106Z,12.25
2022-10-11T08:02:28.389Z,13.60
2022-10-11T08:04:56.737Z,14.55
2022-10-11T08:07:26.899Z,20.98
2022-10-11T08:09:55.400Z,15.50
2022-10-11T08:12:23.809Z,13.18
2022-10-11T08:14:53.317Z,17.15
2022-10-11T08:17:21.749Z,10.75
2022-10-11T08:19:54.194Z,9.48
2022-10-11T08:22:25.513Z,19.50
2022-10-11T08:24:54.450Z,19.92
2022-10-11T08:27:23.064Z,14.05
2022-10-11T08:29:51.470Z,12.75
2022-10-11T08:32:20.827Z,14.82
2022-10-11T08:34:49.639Z,15.43
2022-10-11T08:37:20.010Z,15.73
2022-10-11T08:39:48.043Z,20.30
2022-10-11T08:42:20.741Z,14.55
2022-10-11T08:45:10.087Z,14.50
2022-10-11T08:47:41.282Z,11.93
2022-10-11T08:50:18.332Z,15.05
2022-10-11T08:52:50.353Z,13.80
2022-10-11T08:55:21.323Z,15.00
2022-10-11T08:57:53.861Z,10.77
2022-10-11T09:00:22.952Z,16.25
2022-10-11T09:03:07.954Z,14.82
2022-10-11T09:05:52.261Z,17.20
2022-10-11T09:08:27.166Z,20.42
2022-10-11T09:11:00.974Z,9.98
2022-10-11T09:13:51.942Z,10.85
2022-10-11T09:16:28.506Z,14.77
2022-10-11T09:19:28.988Z,13.23
2022-10-11T09:22:02.332Z,15.32
2022-10-11T09:24:45.702Z,13.10
2022-10-11T09:27:50.378Z,8.60
2022-10-11T09:30:19.115Z,14.65
2022-10-11T09:32:52.009Z,12.95
2022-10-11T09:35:24.173Z,12.13
2022-10-11T09:37:58.639Z,10.52
2022-10-11T09:40:38.746Z,15.20
2022-10-11T09:43:07.297Z,12.60
2022-10-11T09:45:36.091Z,9.90
2022-10-11T09:48:06.724Z,11.60
2022-10-11T09:50:35.488Z,11.75
2022-10-11T09:53:07.746Z,13.45
2022-10-11T09:58:06.864Z,17.20
2022-10-11T10:00:35.281Z,12.20
2022-10-11T10:03:06.739Z,16.08
2022-10-11T10:05:38.607Z,17.33
2022-10-11T10:08:25.310Z,18.42
2022-10-11T10:11:05.969Z,11.90
2022-10-11T10:13:46.231Z,10.68
2022-10-11T10:16:24.741Z,11.60
2022-10-11T10:18:55.619Z,12.25
2022-10-11T10:21:29.715Z,11.35
2022-10-11T10:24:00.167Z,7.93
2022-10-11T10:26:31.221Z,13.38
2022-10-11T10:29:02.723Z,16.02
2022-10-11T10:32:01.541Z,8.52
2022-10-11T10:34:29.812Z,13.60
2022-10-11T10:37:01.894Z,12.25
2022-10-11T10:39:40.960Z,21.27
2022-10-11T10:42:17.139Z,16.90
2022-10-11T10:44:46.438Z,11.45
2022-10-11T10:47:20.710Z,10.70
2022-10-11T10:49:57.458Z,8.70
2022-10-11T10:52:49.558Z,9.95
2022-10-11T10:55:27.338Z,9.25
2022-10-11T10:58:07.164Z,11.73
2022-10-11T11:00:41.388Z,12.68
2022-10-11T11:03:16.120Z,11.15
2022-10-11T11:05:48.782Z,9.32
2022-10-11T11:08:40.686Z,9.35
2022-10-11T11:11:19.768Z,15.63
2022-10-11T11:13:55.243Z,12.90
2022-10-11T11:16:33.895Z,13.52
2022-10-11T11:19:08.950Z,7.70
2022-10-11T11:21:47.011Z,14.52
2022-10-11T11:24:22.845Z,7.07
2022-10-11T11:26:55.450Z,13.98
2022-10-11T11:29:35.671Z,11.48
2022-10-11T11:32:17.263Z,9.25
2022-10-11T11:34:50.230Z,5.53
2022-10-11T11:37:25.471Z,14.50
2022-10-11T11:39:56.899Z,14.38
2022-10-11T11:42:32.081Z,11.90
2022-10-11T11:45:05.252Z,14.23
2022-10-11T11:47:35.098Z,9.23
2022-10-11T11:50:08.088Z,8.48
2022-10-11T11:52:38.808Z,9.77
2022-10-11T11:55:12.211Z,9.88
2022-10-11T11:57:51.035Z,13.05
2022-10-11T12:00:29.332Z,9.57
2022-10-11T12:03:00.096Z,8.02
2022-10-11T12:05:30.575Z,10.70
2022-10-11T12:08:02.097Z,8.27
2022-10-11T12:10:34.197Z,8.45
2022-10-11T12:13:08.925Z,10.32
2022-10-11T12:15:38.361Z,6.40
2022-10-11T12:18:15.460Z,8.20
2022-10-11T12:20:44.709Z,9.63
2022-10-11T12:23:47.892Z,5.75
2022-10-11T12:26:35.389Z,9.23
2022-10-11T12:29:28.520Z,9.48
2022-10-11T12:32:55.073Z,6.35
2022-10-11T12:35:52.220Z,14.20
2022-10-11T12:38:23.909Z,6.38
2022-10-11T12:40:54.782Z,10.45
2022-10-11T12:43:30.066Z,12.13
2022-10-11T12:45:58.345Z,12.70
2022-10-11T12:48:43.002Z,9.20
2022-10-11T12:51:28.742Z,9.32
2022-10-11T12:54:26.012Z,8.93
2022-10-11T12:57:08.371Z,12.75
2022-10-11T12:59:42.870Z,9.10
2022-10-11T13:02:28.849Z,15.85
2022-10-11T13:05:08.829Z,9.15
2022-10-11T13:07:42.268Z,9.50
2022-10-11T13:10:18.429Z,8.23
2022-10-11T13:12:48.652Z,9.05
2022-10-11T13:15:19.615Z,10.68
2022-10-11T13:17:49.000Z,8.93
2022-10-11T13:20:19.708Z,12.50
2022-10-11T13:22:53.220Z,16.08
2022-10-11T13:25:22.982Z,14.43
2022-10-11T13:27:55.250Z,10.88
2022-10-11T13:30:27.595Z,8.38
2022-10-11T13:35:28.892Z,11.93
2022-10-11T13:37:58.869Z,11.05
2022-10-11T13:40:30.878Z,11.25
2022-10-11T13:42:59.879Z,8.68
2022-10-11T13:45:30.925Z,4.78
2022-10-11T13:47:59.393Z,7.95
2022-10-11T13:50:32.342Z,6.50
2022-10-11T13:53:03.834Z,9.82
2022-10-11T13:55:34.534Z,11.55
2022-10-11T13:58:04.265Z,12.13
2022-10-11T14:00:35.578Z,7.68
2022-10-11T14:03:06.859Z,9.07
2022-10-11T14:05:37.369Z,14.77
2022-10-11T14:08:09.132Z,7.10
2022-10-11T14:10:38.941Z,6.20
2022-10-11T14:13:21.084Z,17.15
2022-10-11T14:16:00.021Z,10.32
2022-10-11T14:18:42.628Z,10.63
2022-10-11T14:21:34.895Z,9.63
2022-10-11T14:24:06.910Z,5.78
2022-10-11T14:26:37.013Z,6.85
2022-10-11T14:29:08.052Z,10.02
2022-10-11T14:31:41.525Z,13.88
2022-10-11T14:34:16.399Z,9.20
2022-10-11T14:36:45.030Z,9.70
2022-10-11T14:39:19.954Z,8.40
2022-10-11T14:41:48.667Z,7.75
2022-10-11T14:44:22.392Z,5.82
2022-10-11T14:46:54.881Z,11.65
2022-10-11T14:49:25.314Z,10.65
2022-10-11T14:51:57.061Z,9.38
2022-10-11T14:54:30.636Z,11.55
2022-10-11T14:57:03.946Z,5.32
2022-10-11T14:59:38.388Z,12.30
2022-10-11T15:02:08.264Z,7.60
2022-10-11T15:04:37.980Z,9.65
2022-10-11T15:07:06.180Z,13.05
2022-10-11T15:09:39.023Z,6.10
2022-10-11T15:12:08.438Z,6.78
2022-10-11T15:14:36.499Z,6.78
2022-10-11T15:17:05.150Z,8.45
2022-10-11T15:19:33.439Z,10.63
2022-10-11T15:22:06.140Z,7.68
2022-10-11T15:24:36.129Z,6.20
2022-10-11T15:27:04.686Z,7.82
2022-10-11T15:29:33.391Z,9.65
2022-10-11T15:32:05.259Z,11.73
2022-10-11T15:34:34.317Z,7.43
2022-10-11T15:37:03.766Z,12.23
2022-10-11T15:39:33.798Z,10.82
2022-10-11T15:42:03.381Z,6.63
2022-10-11T15:44:36.330Z,6.70
2022-10-11T15:47:04.760Z,10.82
2022-10-11T15:49:41.456Z,9.52
2022-10-11T15:52:09.809Z,9.68
2022-10-11T15:54:38.118Z,9.68
2022-10-11T15:57:08.046Z,9.52
2022-10-11T15:59:36.067Z,8.68
2022-10-11T16:02:05.178Z,9.57
2022-10-11T16:04:34.620Z,12.40
2022-10-11T16:07:03.265Z,7.50
2022-10-11T16:09:32.716Z,12.82
2022-10-11T16:12:00.990Z,9.52
2022-10-11T16:14:30.653Z,10.55
2022-10-11T16:17:01.767Z,8.75
2022-10-11T16:19:29.726Z,12.48
2022-10-11T16:21:58.054Z,10.00
2022-10-11T16:24:27.581Z,11.18
2022-10-11T16:26:55.873Z,8.48
2022-10-11T16:29:26.096Z,14.52
2022-10-11T16:31:55.415Z,9.68
2022-10-11T16:34:23.767Z,15.00
2022-10-11T16:36:57.885Z,11.90
2022-10-11T16:39:28.710Z,8.73
2022-10-11T16:41:57.109Z,8.85
2022-10-11T16:44:28.156Z,10.98
2022-10-11T16:46:57.791Z,11.90
2022-10-11T16:49:28.332Z,13.18
2022-10-11T16:51:59.037Z,10.98
2022-10-11T16:54:29.458Z,14.48
2022-10-11T16:56:58.147Z,15.73
2022-10-11T16:59:27.749Z,9.52
2022-10-11T17:01:58.607Z,16.85
2022-10-11T17:04:26.965Z,14.35
2022-10-11T17:06:55.215Z,13.18
2022-10-11T17:09:25.392Z,11.65
2022-10-11T17:11:57.381Z,11.20
2022-10-11T17:14:25.815Z,16.60
2022-10-11T17:16:55.211Z,12.77
2022-10-11T17:19:24.543Z,31.40
2022-10-11T17:21:53.963Z,20.65
2022-10-11T17:24:22.411Z,11.90
2022-10-11T17:26:57.634Z,15.07
2022-10-11T17:29:25.911Z,14.57
2022-10-11T17:31:55.412Z,12.13
2022-10-11T17:34:30.244Z,9.38
2022-10-11T17:36:58.437Z,12.38
2022-10-11T17:39:29.698Z,15.35
2022-10-11T17:42:03.470Z,17.77
2022-10-11T17:44:32.866Z,13.68
2022-10-11T17:47:03.171Z,11.35
2022-10-11T17:49:35.381Z,16.92
2022-10-11T17:52:03.557Z,14.45
2022-10-11T17:54:32.326Z,14.38
2022-10-11T17:57:03.580Z,14.23
2022-10-11T17:59:34.499Z,20.42
2022-10-11T18:02:04.529Z,19.13
2022-10-11T18:04:35.476Z,22.65
2022-10-11T18:07:03.582Z,19.27
2022-10-11T18:09:32.623Z,20.52
2022-10-11T18:12:01.833Z,21.27
2022-10-11T18:14:30.183Z,19.00
2022-10-11T18:16:58.740Z,18.17
2022-10-11T18:19:30.125Z,15.93
2022-10-11T18:22:06.847Z,16.10
2022-10-11T18:24:36.433Z,20.83
2022-10-11T18:27:07.368Z,23.08
2022-10-11T18:29:35.446Z,22.25
2022-10-11T18:32:05.296Z,22.88
2022-10-11T18:37:28.196Z,19.90
2022-10-11T18:39:56.540Z,25.40
2022-10-11T18:42:25.977Z,22.35
2022-10-11T18:44:54.729Z,19.80
2022-10-11T18:47:23.063Z,24.60
2022-10-11T18:49:51.333Z,22.25
2022-10-11T18:52:22.206Z,20.40
2022-10-11T18:54:51.683Z,19.67
2022-10-11T18:57:19.805Z,17.95
2022-10-11T18:59:49.174Z,16.00
2022-10-11T19:02:24.635Z,22.15
2022-10-11T19:04:55.574Z,22.08
2022-10-11T19:07:24.133Z,13.50
2022-10-11T19:09:53.749Z,22.63
2022-10-11T19:12:21.999Z,29.15
2022-10-11T19:14:50.990Z,19.50
2022-10-11T19:17:22.610Z,20.20
2022-10-11T19:19:51.453Z,19.83
2022-10-11T19:22:20.097Z,26.67
2022-10-11T19:24:51.051Z,20.50
2022-10-11T19:27:20.847Z,29.70
2022-10-11T19:29:53.142Z,26.83
2022-10-11T19:32:21.720Z,18.23
2022-10-11T19:34:49.829Z,24.40
2022-10-11T19:37:18.221Z,21.65
2022-10-11T19:39:46.566Z,28.08
2022-10-11T19:42:15.242Z,21.75
2022-10-11T19:44:44.465Z,35.22
2022-10-11T19:47:13.097Z,28.08
2022-10-11T19:49:41.116Z,32.10
2022-10-11T19:52:09.658Z,31.27
2022-10-11T19:54:37.990Z,29.30
2022-10-11T19:57:06.771Z,19.58
2022-10-11T19:59:34.971Z,27.60
2022-10-11T20:02:04.983Z,27.33
2022-10-11T20:04:51.655Z,19.67
2022-10-11T20:07:20.995Z,31.90
2022-10-11T20:09:49.502Z,23.95
2022-10-11T20:12:17.886Z,19.88
2022-10-11T20:14:46.187Z,22.52
2022-10-11T20:17:16.354Z,21.30
2022-10-11T20:19:45.774Z,20.42
2022-10-11T20:22:14.237Z,18.23
2022-10-11T20:24:42.315Z,23.35
2022-10-11T20:27:10.516Z,20.88
2022-10-11T20:29:38.846Z,22.63
2022-10-11T20:32:07.558Z,22.13
2022-10-11T20:34:39.510Z,25.83
2022-10-11T20:37:07.484Z,23.40
2022-10-11T20:39:36.059Z,21.85
2022-10-11T20:42:04.702Z,22.23
2022-10-11T20:44:32.757Z,26.92
2022-10-11T20:47:04.043Z,18.25
2022-10-11T20:49:32.561Z,21.50
2022-10-11T20:52:02.618Z,24.27
2022-10-11T20:54:34.863Z,28.33
2022-10-11T20:57:03.118Z,21.27
2022-10-11T20:59:31.489Z,23.02
2022-10-11T21:01:59.440Z,22.67
2022-10-11T21:04:28.448Z,23.15
2022-10-11T21:06:56.659Z,33.22
2022-10-11T21:09:27.188Z,25.02
2022-10-11T21:11:55.446Z,20.80
2022-10-11T21:14:23.475Z,18.80
2022-10-11T21:16:52.715Z,17.58
2022-10-11T21:19:22.414Z,24.42
2022-10-11T21:21:53.795Z,23.20
2022-10-11T21:24:22.685Z,19.17
2022-10-11T21:26:53.293Z,27.67
2022-10-11T21:29:23.282Z,31.55
2022-10-11T21:31:51.566Z,27.20
2022-10-11T21:34:19.601Z,21.77
2022-10-11T21:36:47.767Z,18.30
2022-10-11T21:39:16.383Z,18.83
2022-10-11T21:41:44.583Z,19.90
2022-10-11T21:44:13.930Z,19.75
2022-10-11T21:49:31.747Z,21.80
2022-10-11T21:52:00.475Z,26.33
2022-10-11T21:54:28.517Z,21.77
2022-10-11T21:56:56.855Z,15.15
2022-10-11T21:59:26.312Z,13.02
2022-10-11T22:02:00.780Z,18.17
2022-10-11T22:04:30.448Z,20.63
2022-10-11T22:06:58.831Z,23.67
2022-10-11T22:09:27.782Z,16.42
2022-10-11T22:11:55.958Z,12.65
2022-10-11T22:14:25.133Z,14.48
2022-10-11T22:16:55.086Z,12.60
2022-10-11T22:19:23.924Z,15.93
2022-10-11T22:21:52.275Z,17.77
2022-10-11T22:24:20.349Z,19.33
2022-10-11T22:26:48.853Z,14.98
2022-10-11T22:29:17.077Z,23.88
2022-10-11T22:31:45.123Z,28.40
2022-10-11T22:34:15.869Z,24.13
2022-10-11T22:36:44.287Z,17.75
2022-10-11T22:39:13.507Z,20.85
2022-10-11T22:41:41.808Z,17.77
2022-10-11T22:44:10.240Z,22.60
2022-10-11T22:46:40.326Z,20.73
2022-10-11T22:49:08.311Z,17.73
2022-10-11T22:51:38.285Z,17.95
2022-10-11T22:54:06.616Z,27.63
2022-10-11T22:56:35.204Z,23.80
2022-10-11T22:59:03.201Z,18.88
2022-10-11T23:01:31.231Z,20.90
2022-10-11T23:03:59.575Z,20.65
2022-10-11T23:06:27.547Z,13.18
2022-10-11T23:08:57.076Z,13.80
2022-10-11T23:11:25.658Z,19.05
2022-10-11T23:13:54.574Z,18.90
2022-10-11T23:16:22.707Z,21.40
2022-10-11T23:18:53.211Z,27.27
2022-10-11T23:21:21.380Z,19.52
2022-10-11T23:23:49.780Z,22.63
2022-10-11T23:26:21.311Z,21.45
2022-10-11T23:28:54.814Z,14.70
2022-10-11T23:31:22.990Z,16.70
2022-10-11T23:33:51.289Z,15.60
2022-10-11T23:36:21.552Z,15.88
2022-10-11T23:38:51.394Z,16.88
2022-10-11T23:41:22.915Z,17.25
2022-10-11T23:43:50.970Z,24.80
2022-10-11T23:46:19.248Z,13.27
2022-10-11T23:48:47.269Z,20.67
2022-10-11T23:51:15.772Z,11.38
2022-10-11T23:53:44.034Z,14.25
2022-10-11T23:56:13.716Z,20.42
2022-10-11T23:58:44.845Z,19.00
